createdAt,value
2017-05-19T00:01:25.883Z,19.00
2017-05-19T00:03:55.586Z,18.90
2017-05-19T00:06:25.149Z,18.80
2017-05-19T00:08:54.079Z,18.80
2017-05-19T00:11:22.925Z,18.80
2017-05-19T00:13:51.731Z,18.70
2017-05-19T00:16:20.570Z,18.70
2017-05-19T00:18:49.387Z,18.70
2017-05-19T00:21:18.221Z,18.60
2017-05-19T00:23:47.045Z,18.70
2017-05-19T00:26:15.892Z,18.60
2017-05-19T00:28:44.722Z,18.60
2017-05-19T00:31:13.550Z,18.60
2017-05-19T00:33:42.375Z,18.50
2017-05-19T00:36:11.200Z,18.50
2017-05-19T00:38:40.037Z,18.50
2017-05-19T00:41:08.851Z,18.50
2017-05-19T00:43:37.693Z,18.50
2017-05-19T00:46:07.376Z,18.40
2017-05-19T00:48:36.196Z,18.20
2017-05-19T00:51:05.015Z,18.30
2017-05-19T00:53:33.864Z,18.30
2017-05-19T00:56:02.702Z,18.30
2017-05-19T00:58:31.533Z,18.30
2017-05-19T01:01:00.382Z,18.30
2017-05-19T01:03:29.261Z,18.10
2017-05-19T01:05:58.077Z,18.10
2017-05-19T01:08:26.909Z,18.20
2017-05-19T01:10:55.743Z,18.20
2017-05-19T01:13:24.571Z,18.20
2017-05-19T01:15:53.460Z,18.20
2017-05-19T01:18:22.266Z,18.20
2017-05-19T01:20:51.840Z,18.20
2017-05-19T01:23:20.650Z,18.10
2017-05-19T01:25:50.237Z,18.00
2017-05-19T01:28:19.054Z,18.10
2017-05-19T01:30:48.732Z,18.10
2017-05-19T01:33:17.544Z,18.10
2017-05-19T01:35:46.380Z,17.70
2017-05-19T01:38:15.208Z,17.80
2017-05-19T01:40:44.205Z,17.70
2017-05-19T01:43:13.023Z,17.80
2017-05-19T01:45:41.854Z,17.80
2017-05-19T01:48:10.694Z,17.70
2017-05-19T01:50:39.512Z,17.50
2017-05-19T01:53:08.355Z,17.50
2017-05-19T01:55:37.194Z,17.20
2017-05-19T01:58:06.016Z,16.40
2017-05-19T02:00:34.837Z,16.70
2017-05-19T02:03:03.652Z,16.30
2017-05-19T02:05:32.483Z,16.30
2017-05-19T02:08:01.309Z,16.40
2017-05-19T02:10:30.143Z,16.20
2017-05-19T02:12:58.979Z,16.40
2017-05-19T02:15:27.791Z,16.70
2017-05-19T02:17:56.612Z,16.60
2017-05-19T02:20:25.446Z,16.80
2017-05-19T02:22:54.276Z,16.50
2017-05-19T02:25:23.113Z,16.50
2017-05-19T02:27:51.928Z,16.50
2017-05-19T02:30:20.753Z,16.50
2017-05-19T02:32:49.568Z,16.20
2017-05-19T02:35:18.396Z,15.80
2017-05-19T02:37:47.208Z,16.30
2017-05-19T02:40:16.124Z,16.40
2017-05-19T02:42:44.891Z,16.20
2017-05-19T02:45:13.727Z,16.10
2017-05-19T02:47:42.553Z,16.00
2017-05-19T02:50:11.376Z,16.30
2017-05-19T02:52:40.209Z,16.00
2017-05-19T02:55:09.079Z,15.50
2017-05-19T02:57:37.924Z,15.20
2017-05-19T03:00:06.741Z,15.10
2017-05-19T03:02:35.559Z,14.90
2017-05-19T03:05:04.389Z,15.00
2017-05-19T03:07:33.207Z,15.30
2017-05-19T03:10:02.035Z,15.30
2017-05-19T03:12:30.851Z,14.80
2017-05-19T03:14:59.811Z,15.00
2017-05-19T03:17:28.624Z,15.10
2017-05-19T03:19:57.456Z,14.80
2017-05-19T03:22:26.291Z,14.80
2017-05-19T03:24:55.117Z,14.80
2017-05-19T03:27:23.940Z,14.90
2017-05-19T03:29:52.757Z,15.20
2017-05-19T03:32:21.598Z,15.50
2017-05-19T03:34:50.471Z,15.80
2017-05-19T03:37:19.290Z,15.80
2017-05-19T03:39:48.108Z,15.10
2017-05-19T03:42:16.931Z,14.70
2017-05-19T03:44:45.771Z,14.80
2017-05-19T03:47:14.603Z,15.00
2017-05-19T03:49:43.443Z,15.10
2017-05-19T03:52:12.265Z,15.50
2017-05-19T03:54:41.080Z,15.30
2017-05-19T03:57:09.929Z,15.40
2017-05-19T03:59:38.735Z,15.60
2017-05-19T04:02:07.557Z,15.90
2017-05-19T04:04:36.377Z,16.10
2017-05-19T04:07:05.218Z,16.00
2017-05-19T04:09:34.055Z,16.10
2017-05-19T04:12:02.865Z,16.30
2017-05-19T04:14:31.691Z,16.30
2017-05-19T04:17:00.524Z,16.00
2017-05-19T04:19:29.380Z,16.20
2017-05-19T04:21:58.180Z,16.30
2017-05-19T04:24:27.023Z,16.30
2017-05-19T04:26:55.839Z,16.30
2017-05-19T04:29:24.663Z,16.30
2017-05-19T04:31:54.426Z,16.50
2017-05-19T04:34:23.252Z,16.60
2017-05-19T04:36:52.114Z,16.60
2017-05-19T04:39:20.950Z,16.70
2017-05-19T04:41:49.778Z,16.80
2017-05-19T04:44:18.603Z,16.70
2017-05-19T04:46:47.412Z,16.70
2017-05-19T04:49:16.244Z,16.80
2017-05-19T04:51:45.063Z,16.80
2017-05-19T04:54:13.913Z,16.80
2017-05-19T04:56:42.724Z,16.80
2017-05-19T04:59:11.566Z,16.80
2017-05-19T05:01:40.391Z,16.90
2017-05-19T05:04:09.247Z,16.80
2017-05-19T05:06:38.094Z,16.80
2017-05-19T05:09:06.908Z,16.80
2017-05-19T05:11:35.749Z,16.90
2017-05-19T05:14:04.565Z,17.00
2017-05-19T05:16:33.415Z,17.10
2017-05-19T05:19:02.239Z,17.30
2017-05-19T05:21:31.075Z,17.40
2017-05-19T05:23:59.910Z,17.60
2017-05-19T05:26:28.730Z,18.00
2017-05-19T05:28:57.557Z,18.20
2017-05-19T05:31:26.395Z,18.10
2017-05-19T05:33:55.321Z,18.10
2017-05-19T05:36:24.127Z,18.40
2017-05-19T05:38:52.948Z,18.60
2017-05-19T05:41:21.775Z,18.60
2017-05-19T05:43:50.604Z,18.70
2017-05-19T05:46:19.427Z,18.50
2017-05-19T05:48:48.241Z,18.70
2017-05-19T05:51:17.091Z,18.80
2017-05-19T05:53:45.937Z,18.90
2017-05-19T05:56:14.752Z,18.70
2017-05-19T05:58:43.579Z,18.70
2017-05-19T06:01:12.403Z,18.80
2017-05-19T06:03:41.244Z,18.80
2017-05-19T06:06:10.090Z,18.90
2017-05-19T06:08:38.906Z,19.00
2017-05-19T06:11:07.729Z,19.00
2017-05-19T06:13:36.548Z,18.90
2017-05-19T06:16:05.373Z,18.50
2017-05-19T06:18:34.215Z,18.50
2017-05-19T06:21:03.048Z,18.50
2017-05-19T06:23:31.858Z,18.60
2017-05-19T06:26:00.683Z,18.50
2017-05-19T06:28:29.511Z,18.60
2017-05-19T06:30:58.328Z,18.60
2017-05-19T06:33:27.186Z,18.50
2017-05-19T06:35:56.003Z,18.70
2017-05-19T06:38:24.867Z,18.80
2017-05-19T06:40:56.190Z,18.90
2017-05-19T06:43:39.935Z,18.90
2017-05-19T06:46:18.697Z,19.00
2017-05-19T06:48:47.550Z,18.90
2017-05-19T06:51:16.377Z,18.90
2017-05-19T06:53:45.198Z,19.10
2017-05-19T06:56:14.033Z,19.20
2017-05-19T06:58:42.857Z,19.70
2017-05-19T07:01:11.702Z,20.20
2017-05-19T07:03:40.518Z,20.70
2017-05-19T07:06:09.355Z,21.00
2017-05-19T07:08:38.169Z,20.90
2017-05-19T07:11:06.989Z,20.50
2017-05-19T07:13:35.831Z,20.20
2017-05-19T07:16:04.647Z,20.20
2017-05-19T07:18:34.161Z,20.10
2017-05-19T07:21:02.212Z,20.10
2017-05-19T07:23:31.268Z,20.70
2017-05-19T07:26:00.083Z,21.10
2017-05-19T07:28:28.899Z,21.30
2017-05-19T07:30:57.731Z,21.40
2017-05-19T07:33:26.547Z,21.40
2017-05-19T07:35:55.367Z,21.60
2017-05-19T07:38:24.183Z,22.00
2017-05-19T07:40:53.018Z,22.50
2017-05-19T07:43:21.841Z,22.50
2017-05-19T07:45:50.663Z,22.60
2017-05-19T07:48:19.485Z,22.40
2017-05-19T07:50:48.307Z,22.80
2017-05-19T07:53:17.130Z,23.00
2017-05-19T07:55:45.950Z,23.50
2017-05-19T07:58:14.790Z,23.80
2017-05-19T08:00:43.616Z,24.40
2017-05-19T08:03:12.431Z,24.40
2017-05-19T08:05:41.247Z,24.60
2017-05-19T08:08:10.059Z,25.00
2017-05-19T08:10:38.893Z,25.30
2017-05-19T08:13:07.715Z,25.70
2017-05-19T08:15:36.568Z,25.90
2017-05-19T08:18:05.386Z,26.50
2017-05-19T08:20:34.207Z,26.20
2017-05-19T08:23:03.033Z,26.80
2017-05-19T08:25:31.843Z,27.00
2017-05-19T08:28:00.690Z,26.80
2017-05-19T08:30:29.508Z,26.20
2017-05-19T08:32:58.352Z,26.20
2017-05-19T08:35:27.166Z,26.30
2017-05-19T08:37:55.985Z,26.90
2017-05-19T08:40:24.832Z,27.30
2017-05-19T08:42:53.656Z,27.30
2017-05-19T08:45:22.479Z,27.90
2017-05-19T08:47:51.314Z,28.20
2017-05-19T08:50:20.155Z,28.50
2017-05-19T08:52:48.972Z,28.50
2017-05-19T08:55:17.784Z,28.40
2017-05-19T08:57:46.608Z,28.50
2017-05-19T09:00:15.444Z,28.50
2017-05-19T09:02:44.288Z,28.50
2017-05-19T09:05:13.097Z,28.40
2017-05-19T09:07:41.923Z,27.50
2017-05-19T09:10:10.747Z,27.90
2017-05-19T09:12:39.576Z,28.70
2017-05-19T09:15:08.395Z,28.70
2017-05-19T09:17:37.243Z,27.80
2017-05-19T09:20:06.051Z,27.70
2017-05-19T09:22:34.867Z,27.90
2017-05-19T09:25:03.692Z,27.30
2017-05-19T09:27:32.534Z,28.50
2017-05-19T09:30:01.368Z,27.50
2017-05-19T09:32:30.183Z,28.90
2017-05-19T09:34:59.008Z,29.00
2017-05-19T09:37:27.836Z,28.80
2017-05-19T09:39:56.651Z,29.60
2017-05-19T09:42:25.496Z,29.80
2017-05-19T09:44:54.328Z,29.70
2017-05-19T09:47:23.153Z,28.50
2017-05-19T09:49:51.979Z,30.10
2017-05-19T09:52:20.809Z,27.40
2017-05-19T09:54:49.651Z,27.00
2017-05-19T09:57:18.472Z,26.20
2017-05-19T09:59:47.295Z,27.40
2017-05-19T10:02:16.122Z,26.70
2017-05-19T10:04:44.948Z,25.60
2017-05-19T10:07:13.802Z,25.90
2017-05-19T10:09:42.620Z,27.50
2017-05-19T10:12:11.447Z,28.30
2017-05-19T10:14:40.272Z,29.00
2017-05-19T10:17:09.103Z,30.20
2017-05-19T10:19:37.925Z,30.30
2017-05-19T10:22:06.744Z,29.00
2017-05-19T10:24:35.560Z,27.70
2017-05-19T10:27:04.402Z,27.00
2017-05-19T10:29:33.213Z,27.90
2017-05-19T10:32:38.781Z,26.50
2017-05-19T10:35:07.609Z,27.70
2017-05-19T10:37:36.440Z,27.90
2017-05-19T10:40:05.301Z,26.10
2017-05-19T10:42:34.142Z,26.20
2017-05-19T10:45:02.967Z,26.30
2017-05-19T10:47:31.800Z,26.50
2017-05-19T10:50:00.628Z,26.30
2017-05-19T10:52:29.475Z,26.40
2017-05-19T10:54:58.305Z,26.20
2017-05-19T10:57:27.163Z,25.20
2017-05-19T10:59:55.983Z,25.60
2017-05-19T11:02:24.816Z,25.50
2017-05-19T11:04:53.654Z,25.50
2017-05-19T11:07:22.480Z,26.70
2017-05-19T11:09:51.338Z,27.30
2017-05-19T11:12:20.176Z,26.40
2017-05-19T11:14:49.004Z,26.10
2017-05-19T11:17:17.853Z,26.50
2017-05-19T11:19:46.682Z,26.80
2017-05-19T11:22:15.532Z,26.70
2017-05-19T11:24:44.365Z,26.40
2017-05-19T11:27:13.222Z,26.60
2017-05-19T11:29:42.053Z,25.60
2017-05-19T11:32:10.884Z,25.30
2017-05-19T11:34:39.738Z,24.90
2017-05-19T11:37:08.569Z,25.20
2017-05-19T11:39:37.407Z,26.00
2017-05-19T11:42:06.232Z,26.60
2017-05-19T11:44:35.077Z,26.70
2017-05-19T11:47:03.909Z,26.60
2017-05-19T11:49:32.739Z,26.60
2017-05-19T11:52:01.577Z,25.30
2017-05-19T11:54:30.407Z,25.20
2017-05-19T11:56:59.255Z,25.00
2017-05-19T11:59:28.108Z,24.80
2017-05-19T12:01:56.941Z,25.60
2017-05-19T12:04:25.765Z,26.20
2017-05-19T12:06:54.613Z,26.90
2017-05-19T12:09:23.454Z,26.70
2017-05-19T12:11:52.309Z,26.20
2017-05-19T12:14:21.131Z,24.50
2017-05-19T12:16:49.985Z,23.80
2017-05-19T12:19:18.831Z,23.40
2017-05-19T12:21:47.668Z,23.20
2017-05-19T12:24:16.533Z,22.70
2017-05-19T12:26:45.355Z,22.40
2017-05-19T12:29:14.190Z,22.80
2017-05-19T12:31:43.024Z,23.50
2017-05-19T12:34:11.906Z,24.50
2017-05-19T12:36:40.752Z,25.00
2017-05-19T12:39:09.593Z,24.50
2017-05-19T12:41:38.424Z,23.50
2017-05-19T12:44:07.343Z,23.60
2017-05-19T12:46:36.167Z,22.50
2017-05-19T12:49:04.992Z,22.90
2017-05-19T12:51:33.873Z,22.30
2017-05-19T12:54:02.701Z,22.10
2017-05-19T12:56:31.551Z,21.10
2017-05-19T12:59:00.391Z,21.70
2017-05-19T13:01:29.234Z,21.40
2017-05-19T13:03:58.074Z,21.20
2017-05-19T13:06:26.905Z,21.40
2017-05-19T13:08:55.759Z,21.60
2017-05-19T13:11:24.609Z,20.90
2017-05-19T13:13:53.432Z,21.00
2017-05-19T13:16:22.263Z,21.00
2017-05-19T13:18:51.102Z,22.20
2017-05-19T13:21:20.852Z,22.20
2017-05-19T13:23:49.684Z,22.00
2017-05-19T13:26:18.516Z,21.70
2017-05-19T13:28:47.365Z,20.60
2017-05-19T13:31:16.205Z,20.40
2017-05-19T13:33:45.112Z,20.30
2017-05-19T13:36:13.967Z,20.00
2017-05-19T13:38:42.796Z,19.80
2017-05-19T13:41:11.657Z,19.50
2017-05-19T13:43:40.500Z,19.10
2017-05-19T13:46:09.334Z,19.00
2017-05-19T13:48:38.169Z,18.60
2017-05-19T13:51:07.011Z,18.30
2017-05-19T13:53:35.110Z,18.30
2017-05-19T13:56:03.943Z,17.30
2017-05-19T13:58:32.782Z,17.00
2017-05-19T14:01:01.624Z,17.00
2017-05-19T14:03:29.740Z,16.90
2017-05-19T14:05:58.599Z,16.80
2017-05-19T14:08:27.436Z,17.00
2017-05-19T14:10:56.267Z,16.50
2017-05-19T14:13:25.112Z,16.50
2017-05-19T14:15:53.938Z,16.50
2017-05-19T14:18:22.801Z,16.30
2017-05-19T14:20:51.624Z,16.50
2017-05-19T14:23:20.454Z,16.00
2017-05-19T14:25:49.301Z,16.00
2017-05-19T14:28:18.131Z,16.00
2017-05-19T14:30:46.960Z,15.90
2017-05-19T14:33:15.804Z,15.80
2017-05-19T14:35:43.873Z,15.80
2017-05-19T14:38:12.732Z,15.40
2017-05-19T14:40:41.573Z,15.40
2017-05-19T14:43:10.414Z,15.40
2017-05-19T14:45:39.252Z,14.90
2017-05-19T14:48:08.079Z,14.80
2017-05-19T14:50:36.928Z,15.00
2017-05-19T14:53:05.762Z,15.10
2017-05-19T14:55:34.583Z,14.80
2017-05-19T14:58:03.425Z,14.80
2017-05-19T15:00:32.263Z,14.40
2017-05-19T15:03:01.121Z,14.30
2017-05-19T15:05:29.950Z,14.60
2017-05-19T15:07:58.856Z,14.40
2017-05-19T15:10:27.681Z,14.40
2017-05-19T15:12:56.504Z,14.70
2017-05-19T15:15:25.352Z,14.60
2017-05-19T15:17:54.184Z,14.50
2017-05-19T15:20:22.256Z,14.50
2017-05-19T15:22:51.084Z,14.60
2017-05-19T15:25:19.201Z,14.60
2017-05-19T15:27:48.009Z,14.90
2017-05-19T15:30:16.840Z,15.20
2017-05-19T15:32:45.686Z,15.40
2017-05-19T15:35:14.508Z,15.40
2017-05-19T15:37:43.342Z,15.40
2017-05-19T15:40:12.203Z,15.40
2017-05-19T15:42:41.056Z,15.30
2017-05-19T15:45:09.920Z,14.70
2017-05-19T15:47:38.766Z,14.40
2017-05-19T15:50:07.592Z,14.30
2017-05-19T15:52:36.428Z,14.70
2017-05-19T15:55:05.302Z,14.30
2017-05-19T15:57:34.133Z,14.40
2017-05-19T16:00:02.976Z,14.20
2017-05-19T16:02:31.814Z,14.10
2017-05-19T16:05:00.645Z,14.20
2017-05-19T16:07:29.481Z,14.40
2017-05-19T16:09:57.549Z,14.30
2017-05-19T16:12:26.406Z,14.20
2017-05-19T16:14:55.238Z,13.70
2017-05-19T16:17:24.061Z,13.60
2017-05-19T16:19:52.896Z,13.70
2017-05-19T16:22:21.731Z,13.80
2017-05-19T16:24:50.590Z,13.60
2017-05-19T16:27:19.416Z,13.50
2017-05-19T16:29:48.261Z,13.40
2017-05-19T16:32:17.126Z,13.10
2017-05-19T16:34:45.948Z,13.00
2017-05-19T16:37:14.789Z,13.20
2017-05-19T16:39:43.629Z,13.20
2017-05-19T16:42:12.465Z,13.30
2017-05-19T16:44:41.305Z,13.40
2017-05-19T16:47:10.136Z,13.40
2017-05-19T16:49:38.973Z,13.20
2017-05-19T16:52:07.817Z,13.20
2017-05-19T16:54:36.647Z,13.40
2017-05-19T16:57:05.498Z,13.70
2017-05-19T16:59:34.329Z,13.50
2017-05-19T17:02:02.404Z,13.40
2017-05-19T17:04:30.470Z,13.00
2017-05-19T17:06:59.305Z,13.20
2017-05-19T17:09:28.145Z,13.40
2017-05-19T17:11:56.975Z,13.00
2017-05-19T17:14:25.810Z,13.30
2017-05-19T17:16:54.638Z,13.50
2017-05-19T17:19:23.460Z,13.50
2017-05-19T17:21:52.301Z,12.40
2017-05-19T17:24:21.133Z,12.70
2017-05-19T17:26:49.968Z,12.50
2017-05-19T17:29:18.807Z,12.70
2017-05-19T17:31:47.657Z,12.50
2017-05-19T17:34:16.498Z,12.40
2017-05-19T17:36:45.334Z,12.30
2017-05-19T17:39:14.177Z,12.40
2017-05-19T17:41:43.002Z,12.40
2017-05-19T17:44:11.852Z,12.70
2017-05-19T17:46:40.695Z,12.80
2017-05-19T17:49:09.526Z,13.10
2017-05-19T17:51:38.373Z,12.80
2017-05-19T17:54:07.201Z,12.00
2017-05-19T17:56:36.063Z,12.50
2017-05-19T17:59:04.925Z,12.00
2017-05-19T18:01:33.769Z,12.00
2017-05-19T18:04:01.848Z,11.90
2017-05-19T18:06:30.677Z,11.70
2017-05-19T18:08:59.541Z,11.80
2017-05-19T18:11:28.390Z,11.80
2017-05-19T18:13:57.226Z,11.60
2017-05-19T18:16:26.069Z,11.90
2017-05-19T18:18:54.905Z,11.70
2017-05-19T18:21:23.760Z,12.00
2017-05-19T18:23:52.587Z,12.10
2017-05-19T18:26:21.429Z,12.00
2017-05-19T18:28:50.272Z,12.10
2017-05-19T18:31:19.153Z,12.10
2017-05-19T18:33:48.005Z,11.80
2017-05-19T18:36:16.837Z,11.60
2017-05-19T18:38:45.699Z,11.50
2017-05-19T18:41:14.540Z,11.70
2017-05-19T18:43:43.388Z,12.10
2017-05-19T18:46:12.343Z,12.30
2017-05-19T18:51:38.907Z,12.10
2017-05-19T18:54:07.751Z,12.00
2017-05-19T18:56:36.583Z,12.00
2017-05-19T18:59:05.438Z,12.00
2017-05-19T19:01:34.276Z,11.90
2017-05-19T19:04:03.147Z,11.80
2017-05-19T19:06:31.985Z,11.50
2017-05-19T19:09:00.817Z,11.40
2017-05-19T19:11:29.739Z,12.00
2017-05-19T19:13:58.613Z,11.90
2017-05-19T19:16:27.468Z,11.90
2017-05-19T19:18:56.385Z,11.60
2017-05-19T19:21:24.545Z,11.60
2017-05-19T19:23:53.418Z,11.50
2017-05-19T19:26:22.291Z,11.40
2017-05-19T19:28:51.307Z,11.40
2017-05-19T19:31:20.278Z,11.10
2017-05-19T19:33:49.421Z,11.10
2017-05-19T19:36:18.439Z,11.00
2017-05-19T19:38:47.400Z,10.90
2017-05-19T19:41:16.412Z,10.90
2017-05-19T19:43:45.361Z,10.80
2017-05-19T19:46:14.367Z,10.80
2017-05-19T19:48:43.226Z,10.60
2017-05-19T19:51:12.153Z,10.50
2017-05-19T19:53:41.052Z,10.70
2017-05-19T19:56:09.934Z,10.60
2017-05-19T19:58:38.784Z,10.70
2017-05-19T20:01:06.860Z,10.70
2017-05-19T20:03:35.692Z,10.60
2017-05-19T20:06:04.598Z,10.50
2017-05-19T20:08:33.433Z,10.30
2017-05-19T20:11:02.311Z,10.30
2017-05-19T20:13:31.245Z,10.30
2017-05-19T20:16:00.068Z,10.40
2017-05-19T20:18:28.909Z,10.30
2017-05-19T20:20:56.974Z,10.30
2017-05-19T20:23:25.044Z,10.30
2017-05-19T20:25:53.884Z,10.30
2017-05-19T20:28:22.722Z,10.30
2017-05-19T20:30:51.624Z,10.30
2017-05-19T20:33:20.455Z,10.30
2017-05-19T20:35:49.289Z,10.50
2017-05-19T20:38:18.125Z,10.50
2017-05-19T20:40:46.965Z,10.30
2017-05-19T20:43:15.797Z,10.30
2017-05-19T20:45:44.641Z,10.30
2017-05-19T20:48:13.477Z,10.50
2017-05-19T20:50:42.328Z,10.50
2017-05-19T20:53:11.158Z,10.60
2017-05-19T20:55:39.243Z,10.60
2017-05-19T20:58:08.071Z,10.40
2017-05-19T21:00:36.911Z,10.20
2017-05-19T21:03:05.753Z,10.40
2017-05-19T21:05:34.588Z,10.30
2017-05-19T21:08:03.428Z,10.30
2017-05-19T21:10:32.268Z,10.50
2017-05-19T21:13:01.096Z,10.40
2017-05-19T21:15:29.925Z,10.40
2017-05-19T21:17:58.785Z,10.30
2017-05-19T21:20:27.644Z,10.40
2017-05-19T21:22:56.472Z,10.40
2017-05-19T21:25:25.306Z,10.30
2017-05-19T21:27:54.145Z,10.30
2017-05-19T21:30:23.250Z,10.30
2017-05-19T21:32:52.467Z,10.30
2017-05-19T21:35:21.604Z,10.30
2017-05-19T21:37:50.755Z,10.30
2017-05-19T21:40:20.064Z,10.30
2017-05-19T21:42:49.282Z,10.20
2017-05-19T21:45:17.335Z,10.20
2017-05-19T21:47:46.177Z,10.20
2017-05-19T21:50:15.004Z,10.30
2017-05-19T21:52:43.076Z,10.30
2017-05-19T21:55:11.954Z,10.40
2017-05-19T21:57:40.800Z,10.40
2017-05-19T22:00:08.864Z,10.40
2017-05-19T22:02:37.702Z,10.30
2017-05-19T22:05:06.536Z,10.50
2017-05-19T22:07:35.372Z,10.40
2017-05-19T22:10:04.213Z,10.30
2017-05-19T22:12:33.039Z,10.40
2017-05-19T22:15:01.918Z,10.30
2017-05-19T22:17:30.757Z,10.40
2017-05-19T22:19:59.596Z,10.40
2017-05-19T22:22:28.449Z,10.40
2017-05-19T22:24:57.286Z,10.30
2017-05-19T22:27:26.122Z,10.40
2017-05-19T22:29:54.965Z,10.30
2017-05-19T22:32:23.808Z,10.20
2017-05-19T22:34:51.923Z,10.20
2017-05-19T22:37:20.759Z,10.20
2017-05-19T22:39:49.595Z,10.20
2017-05-19T22:42:18.436Z,10.20
2017-05-19T22:44:47.285Z,10.30
2017-05-19T22:47:16.131Z,10.30
2017-05-19T22:49:44.963Z,10.50
2017-05-19T22:52:13.809Z,10.50
2017-05-19T22:54:42.643Z,10.20
2017-05-19T22:57:11.472Z,10.20
2017-05-19T22:59:40.335Z,10.20
2017-05-19T23:02:09.170Z,10.00
2017-05-19T23:04:38.056Z,10.10
2017-05-19T23:07:06.905Z,10.20
2017-05-19T23:09:35.727Z,10.00
2017-05-19T23:12:04.592Z,10.10
2017-05-19T23:14:33.413Z,10.00
2017-05-19T23:17:02.253Z,10.00
2017-05-19T23:19:31.083Z,10.00
2017-05-19T23:21:59.167Z,10.00
2017-05-19T23:24:27.997Z,9.80
2017-05-19T23:26:56.056Z,9.80
2017-05-19T23:29:24.882Z,9.70
2017-05-19T23:31:53.720Z,9.60
2017-05-19T23:34:22.550Z,9.60
2017-05-19T23:36:51.388Z,9.60
2017-05-19T23:39:20.215Z,9.50
2017-05-19T23:41:49.035Z,9.50
2017-05-19T23:44:17.110Z,9.50
2017-05-19T23:46:45.940Z,9.40
2017-05-19T23:49:14.783Z,9.40
2017-05-19T23:51:42.848Z,9.40
2017-05-19T23:54:11.733Z,9.40
2017-05-19T23:56:40.572Z,9.40
2017-05-19T23:59:09.396Z,9.20
